Time;durP1;ratioP1;P1;durP2;ratioP2;P2;SDS_P1;SDS_P2;PMS_P1;PMS_P2;Temp;Humidity;BMP_temperature;BMP_pressure;BME280_temperature;BME280_humidity;BME280_pressure;Samples;Min_cycle;Max_cycle;Signal;HPM_P1;HPM_P2
2022/06/11 00:01:49;;;;;;;422.20;401.27;;;17.10;99.90;;;;;;5117699;27;20055;-62
2022/06/11 00:04:21;;;;;;;378.95;360.70;;;17.00;99.90;;;;;;5135841;27;20043;-62
2022/06/11 00:06:50;;;;;;;424.75;403.67;;;17.00;99.90;;;;;;5116717;27;20105;-62
2022/06/11 00:09:18;;;;;;;387.25;368.52;;;17.00;99.90;;;;;;5134787;27;20088;-62
2022/06/11 00:11:45;;;;;;;381.02;362.35;;;17.00;99.90;;;;;;5135809;27;20103;-62
2022/06/11 00:14:11;;;;;;;428.80;407.35;;;17.00;99.90;;;;;;5135100;27;20074;-62
2022/06/11 00:16:37;;;;;;;417.90;397.02;;;17.00;99.90;;;;;;5113902;28;20126;-62
2022/06/11 00:19:04;;;;;;;435.35;413.45;;;17.00;99.90;;;;;;5114778;28;20565;-62
2022/06/11 00:21:33;;;;;;;400.95;381.02;;;17.00;99.90;;;;;;5113164;28;20071;-62
2022/06/11 00:23:59;;;;;;;417.05;396.38;;;16.90;99.90;;;;;;5115071;28;20122;-62
2022/06/11 00:26:25;;;;;;;408.73;388.52;;;16.90;99.90;;;;;;5133668;27;20131;-62
2022/06/11 00:28:51;;;;;;;399.88;380.25;;;16.90;99.90;;;;;;5134996;27;20050;-62
2022/06/11 00:31:17;;;;;;;414.75;393.60;;;16.90;99.90;;;;;;5117107;27;20043;-62
2022/06/11 00:33:43;;;;;;;378.35;360.08;;;16.90;99.90;;;;;;5134583;27;20054;-62
2022/06/11 00:36:11;;;;;;;432.13;409.75;;;16.90;99.90;;;;;;5134454;27;20055;-62
2022/06/11 00:38:37;;;;;;;402.17;381.85;;;16.80;99.90;;;;;;5116971;27;20039;-62
2022/06/11 00:41:04;;;;;;;408.92;388.55;;;16.80;99.90;;;;;;5135022;27;20054;-62
2022/06/11 00:43:30;;;;;;;403.30;383.30;;;16.80;99.90;;;;;;5133824;27;20393;-62
2022/06/11 00:46:27;;;;;;;428.73;407.13;;;16.80;99.90;;;;;;5134962;27;20188;-62
2022/06/11 00:48:53;;;;;;;399.05;379.38;;;16.70;99.90;;;;;;5134623;27;20051;-62
2022/06/11 00:51:22;;;;;;;420.65;399.35;;;16.60;99.90;;;;;;5112888;28;20065;-62
2022/06/11 00:53:50;;;;;;;425.77;404.02;;;16.50;99.90;;;;;;5113925;28;20471;-62
2022/06/11 00:56:21;;;;;;;467.13;442.80;;;16.40;99.90;;;;;;5112381;28;20051;-62
2022/06/11 00:58:50;;;;;;;445.00;422.38;;;16.40;99.90;;;;;;5114446;28;20533;-62
2022/06/11 01:01:19;;;;;;;470.20;446.20;;;16.40;99.90;;;;;;5128475;27;20051;-62
2022/06/11 01:03:46;;;;;;;493.95;467.80;;;16.30;99.90;;;;;;5115605;27;20059;-62
2022/06/11 01:06:24;;;;;;;;;;;16.30;99.90;;;;;;5133709;27;20089;-62
2022/06/11 01:08:55;;;;;;;;;;;16.20;99.90;;;;;;5132954;27;20386;-62
2022/06/11 01:11:24;;;;;;;;;;;16.20;99.90;;;;;;5114235;27;20492;-62
2022/06/11 01:13:53;;;;;;;;;;;16.10;99.90;;;;;;5133274;27;19923;-62
2022/06/11 01:16:24;;;;;;;;;;;16.00;99.90;;;;;;5132739;27;20531;-62
2022/06/11 01:19:00;;;;;;;;;;;15.90;99.90;;;;;;5132232;27;19923;-62
2022/06/11 01:21:31;;;;;;;;;;;15.70;99.90;;;;;;5132959;27;19924;-62
2022/06/11 01:24:06;;;;;;;;;;;15.70;99.90;;;;;;5113698;27;19919;-62
2022/06/11 01:26:54;;;;;;;;;;;15.60;99.90;;;;;;5132836;27;19920;-61
2022/06/11 01:29:34;;;;;;;;;;;15.50;99.90;;;;;;5133162;27;20068;-62
2022/06/11 01:32:15;;;;;;;401.27;380.48;;;15.40;99.90;;;;;;5133366;27;19964;-62
2022/06/11 01:34:59;;;;;;;473.40;448.27;;;15.40;99.90;;;;;;5134420;27;20051;-62
2022/06/11 01:37:33;;;;;;;401.48;381.52;;;15.40;99.90;;;;;;5126264;27;20412;-62
2022/06/11 01:40:05;;;;;;;391.85;373.00;;;15.30;99.90;;;;;;5133236;27;20047;-62
2022/06/11 01:42:42;;;;;;;457.67;433.80;;;15.30;99.90;;;;;;5134282;27;20081;-62
2022/06/11 01:45:32;;;;;;;419.10;397.52;;;15.30;99.90;;;;;;5133008;27;20043;-62
2022/06/11 01:47:59;;;;;;;384.58;365.50;;;15.20;99.90;;;;;;5134059;27;20043;-62
2022/06/11 01:50:28;;;;;;;399.92;379.45;;;15.10;99.90;;;;;;5134343;27;20474;-62
2022/06/11 01:53:07;;;;;;;452.63;428.25;;;15.10;99.90;;;;;;5132821;27;20382;-62
2022/06/11 01:55:52;;;;;;;469.88;444.38;;;15.00;99.90;;;;;;5133854;27;20054;-62
2022/06/11 01:58:30;;;;;;;436.98;413.92;;;;;;;;;;5134247;27;20047;-62
2022/06/11 02:01:06;;;;;;;421.90;400.40;;;14.90;99.90;;;;;;5133001;27;20047;-62
2022/06/11 02:03:44;;;;;;;424.75;402.77;;;15.00;99.90;;;;;;5111955;28;20058;-62
2022/06/11 02:06:16;;;;;;;471.50;446.55;;;;;;;;;;5112303;28;20427;-62
2022/06/11 02:08:47;;;;;;;557.47;526.47;;;;;;;;;;5115572;28;20044;-62
2022/06/11 02:11:18;;;;;;;457.77;434.90;;;;;;;;;;5133680;28;20508;-62
2022/06/11 02:13:55;;;;;;;561.90;531.03;;;;;;;;;;5114349;28;20481;-62
2022/06/11 02:16:26;;;;;;;481.45;456.92;;;;;;;;;;5133370;28;20412;-62
2022/06/11 02:18:55;;;;;;;506.90;479.30;;;;;;;;;;5133526;28;20050;-62
2022/06/11 02:21:26;;;;;;;430.35;408.13;;;14.90;99.90;;;;;;5132554;28;20059;-62
2022/06/11 02:24:05;;;;;;;434.58;412.40;;;14.90;99.90;;;;;;5133325;28;20043;-62
2022/06/11 02:26:39;;;;;;;431.98;410.13;;;14.60;99.90;;;;;;5133899;28;20101;-62
2022/06/11 02:29:09;;;;;;;472.67;447.83;;;14.50;99.90;;;;;;5132743;28;20122;-62
2022/06/11 02:31:41;;;;;;;488.70;462.35;;;14.40;99.90;;;;;;5133466;27;20102;-62
2022/06/11 02:34:08;;;;;;;468.17;443.13;;;14.30;99.90;;;;;;5136490;27;20043;-62
2022/06/11 02:36:47;;;;;;;402.00;381.02;;;14.30;99.90;;;;;;5137779;27;20050;-62
2022/06/11 02:39:14;;;;;;;418.60;397.88;;;14.40;99.90;;;;;;5136919;27;20473;-62
2022/06/11 02:41:42;;;;;;;411.50;390.83;;;14.30;99.90;;;;;;5118362;27;20062;-62
2022/06/11 02:44:08;;;;;;;468.10;443.50;;;14.30;99.90;;;;;;5137648;27;20047;-62
2022/06/11 02:46:41;;;;;;;443.67;419.55;;;14.20;99.90;;;;;;5136769;27;20082;-62
2022/06/11 02:49:12;;;;;;;390.77;371.70;;;14.20;99.90;;;;;;5118395;27;20107;-62
2022/06/11 02:51:38;;;;;;;358.95;341.20;;;14.20;99.90;;;;;;5137438;27;20079;-62
2022/06/11 02:54:04;;;;;;;442.25;419.48;;;14.30;99.90;;;;;;5137177;27;20085;-62
2022/06/11 02:56:30;;;;;;;406.05;385.25;;;14.40;99.90;;;;;;5136454;27;20130;-61
2022/06/11 02:58:57;;;;;;;409.98;388.50;;;14.30;99.90;;;;;;5119104;27;20409;-61
2022/06/11 03:01:24;;;;;;;444.33;421.35;;;14.30;99.90;;;;;;5136969;27;20054;-62
2022/06/11 03:03:51;;;;;;;403.45;383.35;;;14.20;99.90;;;;;;5136323;27;20070;-62
2022/06/11 03:06:19;;;;;;;427.10;405.45;;;14.10;99.90;;;;;;5118801;27;20055;-62
2022/06/11 03:08:46;;;;;;;424.65;402.90;;;14.10;99.90;;;;;;5136815;27;20160;-62
2022/06/11 03:11:13;;;;;;;437.48;414.95;;;14.00;99.90;;;;;;5136273;27;20557;-62
2022/06/11 03:13:39;;;;;;;409.75;389.23;;;13.90;99.90;;;;;;5115688;27;20040;-62
2022/06/11 03:16:05;;;;;;;458.58;434.63;;;13.70;99.90;;;;;;5136714;27;20054;-62
2022/06/11 03:18:32;;;;;;;417.90;396.23;;;;;;;;;;5136974;27;20070;-62
2022/06/11 03:20:59;;;;;;;450.90;427.02;;;;;;;;;;5136694;27;20422;-62
2022/06/11 03:23:26;;;;;;;474.23;448.88;;;;;;;;;;5135570;27;20378;-62
2022/06/11 03:25:53;;;;;;;410.35;389.23;;;;;;;;;;5136944;27;20176;-62
2022/06/11 03:28:21;;;;;;;421.80;399.95;;;;;;;;;;5137033;27;20103;-61
2022/06/11 03:30:47;;;;;;;436.05;413.38;;;;;;;;;;5135543;27;20043;-62
2022/06/11 03:33:13;;;;;;;429.10;406.83;;;13.60;99.90;;;;;;5136721;27;20050;-62
2022/06/11 03:35:39;;;;;;;437.60;414.63;;;13.40;99.90;;;;;;5136333;27;20435;-62
2022/06/11 03:38:07;;;;;;;451.10;427.38;;;13.40;99.90;;;;;;5135528;27;20126;-61
2022/06/11 03:40:34;;;;;;;454.30;429.67;;;13.30;99.90;;;;;;5114189;28;20058;-62
2022/06/11 03:43:00;;;;;;;457.95;432.48;;;13.40;99.90;;;;;;5115780;28;20040;-62
2022/06/11 03:45:27;;;;;;;472.05;447.10;;;13.50;99.90;;;;;;5113256;28;20071;-62
2022/06/11 03:47:53;;;;;;;436.92;414.23;;;13.60;99.90;;;;;;5115947;27;20044;-62
2022/06/11 03:50:29;;;;;;;470.50;444.20;;;13.60;99.90;;;;;;5117324;27;20042;-62
2022/06/11 03:52:55;;;;;;;316.85;301.25;;;13.70;99.90;;;;;;5134973;27;20035;-62
2022/06/11 03:55:24;;;;;;;430.30;407.15;;;13.60;99.90;;;;;;5135792;27;20047;-62
2022/06/11 03:57:50;;;;;;;428.08;405.52;;;13.60;99.90;;;;;;5135584;27;20104;-62
2022/06/11 04:01:14;;;;;;;416.35;393.80;;;13.60;99.90;;;;;;5116508;27;20039;-62
2022/06/11 04:03:05;;;;;;;316.58;301.30;;;13.50;99.90;;;;;;5132932;27;20070;-62
2022/06/11 04:05:31;;;;;;;291.42;277.83;;;13.60;99.90;;;;;;5134781;27;20138;-62
2022/06/11 04:07:57;;;;;;;346.40;328.90;;;13.60;99.90;;;;;;5135730;27;20042;-62
2022/06/11 04:10:23;;;;;;;376.15;357.38;;;13.70;99.90;;;;;;5135816;27;20051;-62
2022/06/11 04:12:49;;;;;;;436.98;412.58;;;13.80;99.90;;;;;;5135047;27;20413;-62
2022/06/11 04:15:14;;;;;;;515.47;487.95;;;13.90;99.90;;;;;;5134906;27;20443;-62
2022/06/11 04:17:40;;;;;;;724.53;678.55;;;14.10;99.90;;;;;;5135568;27;20043;-62
2022/06/11 04:20:07;;;;;;;886.33;822.17;;;14.20;99.90;;;;;;5116307;27;20092;-62
2022/06/11 04:22:32;;;;;;;981.22;901.42;;;14.20;99.90;;;;;;5116457;27;20504;-62
2022/06/11 04:24:58;;;;;;;947.03;874.80;;;14.30;99.90;;;;;;5096811;28;20051;-62
2022/06/11 04:27:24;;;;;;;1004.65;922.95;;;14.40;99.90;;;;;;5112520;28;20645;-62
2022/06/11 04:29:54;;;;;;;913.08;844.22;;;14.50;99.90;;;;;;5113049;28;20047;-62
2022/06/11 04:32:21;;;;;;;562.42;529.88;;;14.60;99.90;;;;;;5118375;27;20039;-62
2022/06/11 04:34:49;;;;;;;858.70;794.33;;;14.60;99.90;;;;;;5134876;27;20393;-62
2022/06/11 04:37:16;;;;;;;589.77;552.93;;;14.60;99.90;;;;;;5116534;27;20047;-62
2022/06/11 04:39:45;;;;;;;842.60;776.22;;;14.80;99.90;;;;;;5135246;27;20062;-62
2022/06/11 04:42:12;;;;;;;;;;;14.80;99.90;;;;;;5133508;27;20039;-62
2022/06/11 04:44:40;;;;;;;1013.13;912.00;;;14.90;99.90;;;;;;5133538;27;20006;-62
2022/06/11 04:47:08;;;;;;;1040.40;933.97;;;14.90;99.90;;;;;;5116772;27;20047;-62
2022/06/11 04:49:35;;;;;;;946.85;857.08;;;15.00;99.90;;;;;;5134980;27;20039;-62
2022/06/11 04:52:00;;;;;;;760.55;707.33;;;15.00;99.90;;;;;;5134543;27;20062;-62
2022/06/11 04:54:26;;;;;;;867.65;800.85;;;15.00;99.90;;;;;;5116824;27;20477;-62
2022/06/11 04:56:52;;;;;;;1672.45;909.72;;;15.00;99.90;;;;;;5133684;27;20051;-62
2022/06/11 04:59:18;;;;;;;707.55;661.88;;;15.10;99.90;;;;;;5134334;27;20045;-62
2022/06/11 05:01:44;;;;;;;452.90;422.58;;;15.10;99.90;;;;;;5134399;27;20045;-62
2022/06/11 05:04:12;;;;;;;485.67;455.13;;;15.20;99.90;;;;;;5116475;27;20126;-62
2022/06/11 05:06:42;;;;;;;884.10;817.83;;;15.20;99.90;;;;;;5134662;27;20050;-62
2022/06/11 05:09:11;;;;;;;625.55;581.17;;;15.20;99.90;;;;;;5133578;27;20379;-62
2022/06/11 05:11:37;;;;;;;779.08;723.97;;;15.30;99.90;;;;;;5134863;27;20047;-62
2022/06/11 05:14:03;;;;;;;903.65;837.47;;;15.30;99.90;;;;;;5134393;27;20047;-62
2022/06/11 05:16:30;;;;;;;823.78;766.17;;;15.40;99.90;;;;;;5115287;27;20402;-62
2022/06/11 05:18:55;;;;;;;886.40;820.70;;;15.40;99.90;;;;;;5116472;27;20054;-62
2022/06/11 05:21:22;;;;;;;1720.90;952.38;;;15.50;99.90;;;;;;5134088;27;20039;-62
2022/06/11 05:23:49;;;;;;;910.95;841.53;;;15.60;99.90;;;;;;5133724;27;20046;-62
2022/06/11 05:26:24;;;;;;;910.47;838.95;;;15.70;99.90;;;;;;5133970;27;20047;-62
2022/06/11 05:28:50;;;;;;;844.58;781.55;;;15.70;99.90;;;;;;5134324;27;20509;-62
2022/06/11 05:31:17;;;;;;;834.42;775.25;;;15.80;99.90;;;;;;5115391;27;20051;-62
2022/06/11 05:33:43;;;;;;;910.78;837.67;;;15.90;99.90;;;;;;5134377;27;20051;-62
2022/06/11 05:36:11;;;;;;;961.50;883.47;;;15.90;99.90;;;;;;5133820;27;20051;-62
2022/06/11 05:38:37;;;;;;;889.92;825.75;;;15.90;99.90;;;;;;5115277;27;20088;-62
2022/06/11 05:41:04;;;;;;;803.85;743.30;;;16.00;99.90;;;;;;5134264;27;20047;-62
2022/06/11 05:43:29;;;;;;;930.83;854.13;;;16.10;99.90;;;;;;5133723;27;20073;-62
2022/06/11 05:46:05;;;;;;;749.42;699.88;;;16.10;99.90;;;;;;5097865;27;20073;-62
2022/06/11 05:48:42;;;;;;;819.05;760.97;;;16.10;99.90;;;;;;5134315;27;20054;-62
2022/06/11 05:51:13;;;;;;;856.97;793.17;;;16.10;99.90;;;;;;5133054;27;20078;-62
2022/06/11 05:53:39;;;;;;;857.13;788.90;;;16.20;99.90;;;;;;5134019;27;20054;-62
2022/06/11 05:56:05;;;;;;;803.08;745.10;;;16.20;99.90;;;;;;5115383;27;20054;-62
2022/06/11 05:58:39;;;;;;;720.30;672.97;;;16.20;99.90;;;;;;5133011;27;20139;-62
2022/06/11 06:01:06;;;;;;;816.40;759.63;;;16.30;99.90;;;;;;5133347;27;20503;-62
2022/06/11 06:03:32;;;;;;;660.78;618.88;;;16.30;99.90;;;;;;5134163;27;20054;-62
2022/06/11 06:05:58;;;;;;;615.97;572.53;;;16.30;99.90;;;;;;5132905;27;20039;-62
2022/06/11 06:08:23;;;;;;;816.90;758.53;;;16.40;99.90;;;;;;5115382;27;20046;-62
2022/06/11 06:10:49;;;;;;;771.53;717.15;;;16.50;99.90;;;;;;5133407;27;20078;-62
2022/06/11 06:13:52;;;;;;;556.00;523.05;;;16.50;99.90;;;;;;5132948;27;20135;-62
2022/06/11 06:16:10;;;;;;;1999.90;999.90;;;16.50;99.90;;;;;;5112899;28;20050;-62
2022/06/11 06:18:36;;;;;;;705.28;656.30;;;16.60;99.90;;;;;;5117809;28;20477;-62
2022/06/11 06:21:03;;;;;;;655.33;604.45;;;16.60;99.90;;;;;;5132628;28;20050;-62
2022/06/11 06:23:31;;;;;;;470.25;432.25;;;16.60;99.90;;;;;;5133757;28;20054;-62
2022/06/11 06:25:57;;;;;;;1999.90;999.90;;;16.70;99.90;;;;;;5123340;27;20043;-62
2022/06/11 06:28:23;;;;;;;1999.90;999.90;;;16.80;99.90;;;;;;5124348;28;20103;-62
2022/06/11 06:30:49;;;;;;;412.67;384.38;;;16.80;99.90;;;;;;5133704;28;20058;-62
2022/06/11 06:33:15;;;;;;;445.58;403.30;;;16.80;99.90;;;;;;5133005;28;20039;-62
2022/06/11 06:35:41;;;;;;;669.55;603.10;;;16.80;99.90;;;;;;5133109;28;20405;-62
2022/06/11 06:38:07;;;;;;;394.63;364.42;;;16.70;99.90;;;;;;5133278;28;20054;-62
2022/06/11 06:40:33;;;;;;;590.80;543.80;;;16.90;99.90;;;;;;5114498;28;20300;-62
2022/06/11 06:42:59;;;;;;;1999.90;999.90;;;16.90;99.90;;;;;;5133382;28;20035;-62
2022/06/11 06:45:24;;;;;;;394.13;364.05;;;16.90;99.90;;;;;;5111039;28;20058;-62
2022/06/11 06:47:50;;;;;;;1564.80;809.17;;;17.00;99.90;;;;;;5110879;28;20063;-62
2022/06/11 06:50:16;;;;;;;334.90;308.65;;;17.10;99.90;;;;;;5121952;28;20080;-62
2022/06/11 06:52:45;;;;;;;393.05;359.67;;;;;;;;;;5133284;28;20042;-63
2022/06/11 06:55:14;;;;;;;1999.90;999.90;;;;;;;;;;5113308;28;20515;-63
2022/06/11 06:57:40;;;;;;;1552.03;797.55;;;17.30;99.90;;;;;;5077336;28;20057;-63
2022/06/11 07:00:07;;;;;;;1136.82;625.22;;;17.30;99.90;;;;;;5112489;28;20126;-63
2022/06/11 07:02:33;;;;;;;1097.70;588.40;;;17.40;99.90;;;;;;5114300;28;20040;-64
2022/06/11 07:04:59;;;;;;;1188.53;674.38;;;17.40;99.90;;;;;;5133112;28;20107;-63
2022/06/11 07:07:26;;;;;;;268.20;249.18;;;17.40;99.90;;;;;;5133288;28;20043;-63
2022/06/11 07:09:54;;;;;;;271.45;248.05;;;17.40;99.90;;;;;;5132386;28;20043;-63
2022/06/11 07:12:20;;;;;;;1999.90;999.90;;;17.40;99.90;;;;;;5132670;28;20046;-63
2022/06/11 07:14:46;;;;;;;1549.97;796.20;;;17.50;99.90;;;;;;5111418;28;20039;-64
2022/06/11 07:17:14;;;;;;;1541.43;788.35;;;17.60;99.90;;;;;;5112091;28;20048;-63
2022/06/11 07:19:47;;;;;;;619.33;361.13;;;17.70;99.90;;;;;;5114728;28;20101;-63
2022/06/11 07:22:20;;;;;;;1535.93;782.35;;;17.90;99.90;;;;;;5135201;27;20478;-63
2022/06/11 07:24:47;;;;;;;1999.90;999.90;;;18.00;99.90;;;;;;5136648;27;20043;-63
2022/06/11 07:27:17;;;;;;;1999.90;999.90;;;18.10;99.90;;;;;;5117842;27;20108;-63
2022/06/11 07:29:49;;;;;;;1094.38;587.30;;;18.00;99.90;;;;;;5135791;27;20051;-63
2022/06/11 07:32:17;;;;;;;1510.87;827.20;;;18.10;99.90;;;;;;5136953;27;20469;-63
2022/06/11 07:34:43;;;;;;;202.32;187.68;;;18.00;99.90;;;;;;5136259;27;20051;-63
2022/06/11 07:37:10;;;;;;;1586.63;830.08;;;18.10;99.90;;;;;;5135989;27;20046;-64
2022/06/11 07:39:36;;;;;;;1999.90;999.90;;;18.20;99.90;;;;;;5136232;27;20047;-63
2022/06/11 07:42:02;;;;;;;1999.90;999.90;;;18.20;99.90;;;;;;5136372;27;20043;-63
2022/06/11 07:44:28;;;;;;;705.60;656.60;;;18.10;99.90;;;;;;5117385;27;20537;-63
2022/06/11 07:46:54;;;;;;;1046.72;760.58;;;18.30;99.90;;;;;;5117594;27;20171;-63
2022/06/11 07:49:20;;;;;;;731.33;681.00;;;18.40;99.90;;;;;;5136037;27;20039;-63
2022/06/11 07:51:45;;;;;;;469.15;433.75;;;18.40;99.90;;;;;;5117538;27;20124;-63
2022/06/11 07:54:11;;;;;;;1999.90;999.90;;;18.50;99.90;;;;;;5136097;27;20040;-63
2022/06/11 07:56:38;;;;;;;1999.90;999.90;;;18.40;99.90;;;;;;5114005;28;20039;-63
2022/06/11 07:59:05;;;;;;;1098.82;802.75;;;18.60;99.90;;;;;;5116820;27;20046;-63
2022/06/11 08:01:31;;;;;;;1225.13;709.28;;;18.70;99.90;;;;;;5136291;27;20126;-63
2022/06/11 08:03:57;;;;;;;1999.90;999.90;;;18.90;99.90;;;;;;5116319;27;20119;-63
2022/06/11 08:06:23;;;;;;;1999.90;999.90;;;18.80;99.90;;;;;;5134681;27;20050;-63
2022/06/11 08:08:50;;;;;;;727.58;679.05;;;18.90;99.90;;;;;;5135195;27;20084;-63
2022/06/11 08:11:16;;;;;;;1999.90;999.90;;;19.00;99.90;;;;;;5135406;27;20374;-63
2022/06/11 08:13:41;;;;;;;703.42;660.15;;;19.10;99.90;;;;;;5134337;27;20393;-63
2022/06/11 08:16:10;;;;;;;781.38;719.88;;;19.30;99.90;;;;;;5135495;27;20043;-63
2022/06/11 08:18:37;;;;;;;610.65;567.13;;;19.20;99.90;;;;;;5113553;27;20035;-63
2022/06/11 08:21:03;;;;;;;1999.90;999.90;;;19.30;99.90;;;;;;5134593;27;20047;-63
2022/06/11 08:23:29;;;;;;;1999.90;999.90;;;19.40;99.90;;;;;;5134720;27;20095;-63
2022/06/11 08:25:55;;;;;;;768.55;718.15;;;19.60;99.90;;;;;;5134277;27;20880;-61
2022/06/11 08:28:22;;;;;;;674.80;633.17;;;19.70;99.90;;;;;;5135672;27;20048;-61
2022/06/11 08:30:49;;;;;;;1999.90;999.90;;;19.70;99.90;;;;;;5134314;27;20394;-61
2022/06/11 08:33:15;;;;;;;736.85;688.55;;;19.70;99.90;;;;;;5115974;27;20466;-61
2022/06/11 08:35:41;;;;;;;704.20;659.38;;;19.80;99.90;;;;;;5116835;27;20059;-61
2022/06/11 08:38:07;;;;;;;688.58;645.28;;;19.90;99.90;;;;;;5135512;27;20523;-61
2022/06/11 08:40:40;;;;;;;611.92;575.65;;;19.90;99.90;;;;;;5133974;27;20587;-61
2022/06/11 08:43:15;;;;;;;734.38;684.80;;;20.00;99.90;;;;;;5116929;27;20086;-61
2022/06/11 08:45:53;;;;;;;671.33;630.85;;;19.90;99.90;;;;;;5134946;27;20063;-61
2022/06/11 08:48:42;;;;;;;765.92;714.00;;;20.00;99.90;;;;;;5134004;27;20051;-61
2022/06/11 08:51:45;;;;;;;656.95;616.83;;;19.70;99.90;;;;;;5096292;28;20131;-61
2022/06/11 08:54:15;;;;;;;596.97;562.13;;;19.80;99.90;;;;;;5113623;28;20091;-61
2022/06/11 08:57:06;;;;;;;695.45;651.63;;;19.90;99.90;;;;;;5113998;28;20054;-61
2022/06/11 08:59:42;;;;;;;736.30;688.65;;;20.10;99.90;;;;;;5133770;27;20047;-61
2022/06/11 09:02:34;;;;;;;795.67;739.70;;;20.20;99.90;;;;;;5115715;27;20174;-61
2022/06/11 09:05:08;;;;;;;558.22;526.40;;;20.20;99.90;;;;;;5134720;27;20434;-61
2022/06/11 09:07:44;;;;;;;765.90;715.33;;;20.40;99.90;;;;;;5134418;27;20424;-61
2022/06/11 09:10:35;;;;;;;737.67;689.63;;;20.50;99.90;;;;;;5133989;27;20106;-61
2022/06/11 09:13:11;;;;;;;594.35;548.28;;;20.60;99.90;;;;;;5134613;27;20425;-61
2022/06/11 09:15:48;;;;;;;1198.63;683.03;;;20.70;99.90;;;;;;5132828;27;20055;-61
2022/06/11 09:18:32;;;;;;;438.95;405.02;;;20.70;99.90;;;;;;5134369;27;20046;-61
2022/06/11 09:21:10;;;;;;;814.17;751.58;;;20.70;99.90;;;;;;5115890;27;20061;-61
2022/06/11 09:23:52;;;;;;;749.67;700.38;;;20.80;99.90;;;;;;5133616;27;20143;-61
2022/06/11 09:26:42;;;;;;;862.55;801.75;;;20.40;99.90;;;;;;5115667;27;20082;-61
2022/06/11 09:29:14;;;;;;;1169.65;655.35;;;20.20;99.90;;;;;;5115465;27;20191;-61
2022/06/11 09:31:43;;;;;;;;;;;20.40;99.90;;;;;;5134886;27;20111;-61
2022/06/11 09:34:15;;;;;;;1304.80;781.67;;;20.40;99.90;;;;;;5111846;28;19992;-61
2022/06/11 09:36:48;;;;;;;570.85;530.05;;;20.30;99.90;;;;;;5111665;28;20662;-61
2022/06/11 09:39:29;;;;;;;1999.90;999.90;;;20.40;99.90;;;;;;5113331;28;20410;-61
2022/06/11 09:42:00;;;;;;;1999.90;999.90;;;20.60;99.90;;;;;;5117006;27;20070;-61
2022/06/11 09:44:45;;;;;;;1999.90;999.90;;;20.80;99.90;;;;;;5133334;27;20055;-61
2022/06/11 09:47:28;;;;;;;1999.90;999.90;;;20.90;99.90;;;;;;5133932;27;20055;-61
2022/06/11 09:50:22;;;;;;;1999.90;999.90;;;20.90;99.90;;;;;;5134142;27;20051;-61
2022/06/11 09:53:02;;;;;;;1999.90;999.90;;;20.90;99.90;;;;;;5113324;28;20047;-61
2022/06/11 09:55:36;;;;;;;1999.90;999.90;;;21.10;99.90;;;;;;5113308;28;20092;-62
2022/06/11 09:58:17;;;;;;;1999.90;999.90;;;21.10;99.90;;;;;;5112745;28;20410;-61
2022/06/11 10:00:48;;;;;;;1999.90;999.90;;;20.90;99.10;;;;;;5126169;27;20031;-61
2022/06/11 10:03:42;;;;;;;1999.90;999.90;;;21.00;99.90;;;;;;5133453;27;20043;-61
2022/06/11 10:06:10;;;;;;;1999.90;999.90;;;21.10;99.90;;;;;;5133118;27;20459;-61
2022/06/11 10:08:49;;;;;;;1999.90;999.90;;;21.40;99.90;;;;;;5133699;27;20043;-61
2022/06/11 10:11:21;;;;;;;1999.90;999.90;;;21.70;99.10;;;;;;5132765;27;20130;-61
2022/06/11 10:13:50;;;;;;;1999.90;999.90;;;21.80;99.90;;;;;;5133556;27;20096;-61
2022/06/11 10:16:26;;;;;;;1999.90;999.90;;;21.70;99.90;;;;;;5133565;28;20062;-61
2022/06/11 10:18:59;;;;;;;1999.90;999.90;;;21.50;99.10;;;;;;5132908;28;20075;-61
2022/06/11 10:21:28;;;;;;;1999.90;999.90;;;21.40;99.90;;;;;;5133691;28;20092;-61
2022/06/11 10:24:00;;;;;;;1999.90;999.90;;;21.60;99.10;;;;;;5133227;28;20401;-61
2022/06/11 10:26:32;;;;;;;1999.90;999.90;;;21.20;99.90;;;;;;5132847;28;20096;-61
2022/06/11 10:29:06;;;;;;;1999.90;999.90;;;21.10;97.80;;;;;;5116223;28;20051;-61
2022/06/11 10:31:39;;;;;;;1999.90;999.90;;;20.70;99.00;;;;;;5115179;28;20096;-61
2022/06/11 10:34:23;;;;;;;1999.90;999.90;;;20.40;99.90;;;;;;5113734;28;20104;-61
2022/06/11 10:36:55;;;;;;;1999.90;999.90;;;20.20;99.20;;;;;;5131570;28;20128;-61
2022/06/11 10:39:21;;;;;;;1999.90;999.90;;;20.60;99.50;;;;;;5132207;28;20612;-62
2022/06/11 10:41:56;;;;;;;1999.90;999.90;;;21.20;99.00;;;;;;5115234;28;20039;-62
2022/06/11 10:44:24;;;;;;;1999.90;999.90;;;21.90;95.90;;;;;;5133015;28;20043;-63
2022/06/11 10:46:52;;;;;;;1999.90;999.90;;;22.20;94.60;;;;;;5132262;28;20039;-62
2022/06/11 10:49:22;;;;;;;1999.90;999.90;;;22.60;95.80;;;;;;5133327;28;20134;-62
2022/06/11 10:52:04;;;;;;;1999.90;999.90;;;22.70;93.00;;;;;;5133626;28;20081;-62
2022/06/11 10:54:30;;;;;;;1999.90;999.90;;;23.00;90.90;;;;;;5134083;27;20478;-62
2022/06/11 10:57:03;;;;;;;1999.90;999.90;;;23.00;91.70;;;;;;5137553;27;20107;-63
2022/06/11 10:59:35;;;;;;;1999.90;999.90;;;23.20;90.50;;;;;;5137057;27;20104;-63
2022/06/11 11:02:23;;;;;;;1999.90;999.90;;;22.90;93.30;;;;;;5136031;27;20134;-63
2022/06/11 11:05:09;;;;;;;1999.90;999.90;;;22.70;92.30;;;;;;5137524;27;20138;-63
2022/06/11 11:07:53;;;;;;;1999.90;999.90;;;22.40;91.60;;;;;;5118249;27;20086;-62
2022/06/11 11:10:34;;;;;;;1999.90;999.90;;;22.90;92.50;;;;;;5136565;27;20506;-63
2022/06/11 11:13:02;;;;;;;1999.90;999.90;;;23.30;89.80;;;;;;5118875;27;20043;-62
2022/06/11 11:15:37;;;;;;;1999.90;999.90;;;23.30;92.60;;;;;;5135882;27;20061;-62
2022/06/11 11:18:20;;;;;;;1999.90;999.90;;;23.40;91.20;;;;;;5136916;27;20485;-63
2022/06/11 11:20:50;;;;;;;1999.90;999.90;;;23.70;90.30;;;;;;5136340;27;20051;-62
2022/06/11 11:23:22;;;;;;;1999.90;999.90;;;23.60;91.80;;;;;;5135716;27;20043;-62
2022/06/11 11:25:53;;;;;;;1999.90;999.90;;;23.30;90.60;;;;;;5118253;27;20503;-62
2022/06/11 11:28:25;;;;;;;1999.90;999.90;;;23.50;87.40;;;;;;5136256;27;20450;-63
2022/06/11 11:30:58;;;;;;;1999.90;999.90;;;23.50;90.90;;;;;;5117830;27;20043;-62
2022/06/11 11:33:28;;;;;;;1999.90;999.90;;;23.50;92.90;;;;;;5136660;27;20391;-62
2022/06/11 11:36:11;;;;;;;1999.90;999.90;;;23.70;84.40;;;;;;5135589;27;20043;-62
2022/06/11 11:38:37;;;;;;;1999.90;999.90;;;23.80;86.90;;;;;;5114186;28;20044;-63
2022/06/11 11:41:04;;;;;;;1999.90;999.90;;;23.70;83.50;;;;;;5115842;28;20047;-62
2022/06/11 11:43:37;;;;;;;1999.90;999.90;;;24.10;81.20;;;;;;5113824;28;20050;-62
2022/06/11 11:46:09;;;;;;;1999.90;999.90;;;24.00;80.90;;;;;;5100903;28;20546;-62
2022/06/11 11:48:46;;;;;;;1999.90;999.90;;;23.80;80.60;;;;;;5115830;28;20060;-63
2022/06/11 11:51:33;;;;;;;1999.90;999.90;;;23.10;82.60;;;;;;5114781;27;20035;-62
2022/06/11 11:54:03;;;;;;;1999.90;999.90;;;22.60;88.70;;;;;;5114751;28;20083;-62
2022/06/11 11:56:36;;;;;;;1999.90;999.90;;;22.60;91.30;;;;;;5115268;28;20494;-62
2022/06/11 11:59:06;;;;;;;;;;;22.70;88.80;;;;;;5115982;28;20054;-62
2022/06/11 12:01:33;;;;;;;1999.90;999.90;;;22.90;91.10;;;;;;5115470;28;19915;-62
2022/06/11 12:04:28;;;;;;;1999.90;999.90;;;23.20;86.20;;;;;;5114528;28;20050;-62
2022/06/11 12:06:58;;;;;;;1999.90;999.90;;;23.40;87.90;;;;;;5115294;28;20574;-63
2022/06/11 12:09:37;;;;;;;1999.90;999.90;;;23.00;86.20;;;;;;5113570;28;20050;-62
2022/06/11 12:12:10;;;;;;;1999.90;999.90;;;22.70;85.00;;;;;;5114169;28;20444;-63
2022/06/11 12:14:39;;;;;;;1999.90;999.90;;;22.60;89.80;;;;;;5114662;28;20052;-62
2022/06/11 12:17:24;;;;;;;1999.90;999.90;;;22.90;91.40;;;;;;5115443;28;20047;-63
2022/06/11 12:19:54;;;;;;;1999.90;999.90;;;22.90;84.80;;;;;;5114288;27;20043;-63
2022/06/11 12:22:35;;;;;;;1999.90;999.90;;;23.30;87.20;;;;;;5105238;28;20085;-62
2022/06/11 12:25:02;;;;;;;1999.90;999.90;;;23.50;85.70;;;;;;5113273;28;20100;-63
2022/06/11 12:27:39;;;;;;;1999.90;999.90;;;23.70;86.70;;;;;;5115214;28;20367;-63
2022/06/11 12:30:23;;;;;;;1999.90;999.90;;;23.90;90.00;;;;;;5108856;28;20032;-63
2022/06/11 12:32:49;;;;;;;1999.90;999.90;;;23.30;81.90;;;;;;5094221;28;20051;-63